Airfield :
LOGIN :

Register | Disclaimer

   EN    FR    IT 

 










Legend :    VFR   Marginal VFR   IFR   Intensive IFR   Very Intensive IFR
Visi :
Ceiling :
>= 8 km
>= 3000ft
5 to 8 km
1000 to 3000 ft
1500m to 5 km
500 to 1000 ft
800 to 1500m
200 to 500 ft
< 800m
< 200 ft
Symbols :   Thunderstorms  Fog  Heavy snow  Heavy precipitations  Wind > 20 kt
SIGMETs :     Misc.  Thunderstorms  Icing  Turbulence  Mountain Waves  Volcanic Ashes






- Airport Elevation : 1682 ft
- IATA code : VIT


LEVT - Vitoria Gasteiz

CURRENT METAR :
  • 241730Z 23010KT 210V280 9999 FEW035 09/04 Q1010

EXPIRED METARs :
  • 241700Z 24006KT 9999 FEW035 10/03 Q1010
  • 241630Z 25011KT 220V280 9999 FEW040 10/02 Q1010
  • 241600Z 24012KT 210V280 9999 FEW035 10/03 Q1010
  • 241530Z 23012KT 9999 FEW035 10/03 Q1010
  • 241500Z 25012KT 210V290 9999 FEW035 11/03 Q1010

TAF TAF LEVT
Valid from the 24 at 18:00 until the 25 at 18:00 UTC


241700Z 2418/2518 25008KT 9999 SCT015 BKN020 TX09/2514Z TN03/2507Z
TEMPO 2418/2515 3000 -RA BKN010
PROB30
TEMPO 2500/2508 1500 RADZ BR BKN005 BKN010



MET'MAP, your aeronautical weather chart ! - Copyright ORBIFLY December 2007 - Disclaimer

ORBIFLY MET'MAP TEAM :

Programming & Development : Alexandra Zaïnal
Concept & original design : Baudouin d'Aumeries
Assistance for programming : Marc-Olivier Méhu
Technical & hardware support : Manuel Goepfert

Contact : metmap@orbifly.com




SOURCES & CREDITS :

   NOAA